sensor_id;sensor_type;location;lat;lon;timestamp;pressure;altitude;pressure_sealevel;temperature;humidity
9784;BME280;4931;44.874;-1.092;2022-07-10T00:03:45;101939.50;;;22.49;97.03
9784;BME280;4931;44.874;-1.092;2022-07-10T00:08:32;101942.31;;;22.32;98.55
9784;BME280;4931;44.874;-1.092;2022-07-10T00:13:17;101935.09;;;22.22;99.95
9784;BME280;4931;44.874;-1.092;2022-07-10T00:18:05;101936.41;;;22.16;99.75
9784;BME280;4931;44.874;-1.092;2022-07-10T00:22:51;101930.16;;;22.19;100.00
9784;BME280;4931;44.874;-1.092;2022-07-10T00:27:42;101927.72;;;22.00;100.00
9784;BME280;4931;44.874;-1.092;2022-07-10T00:32:27;101916.72;;;21.95;100.00
9784;BME280;4931;44.874;-1.092;2022-07-10T00:37:15;101916.41;;;21.79;100.00
9784;BME280;4931;44.874;-1.092;2022-07-10T00:42:06;101921.34;;;21.64;100.00
9784;BME280;4931;44.874;-1.092;2022-07-10T00:46:52;101923.28;;;21.64;100.00
9784;BME280;4931;44.874;-1.092;2022-07-10T00:51:37;101924.56;;;21.49;100.00
9784;BME280;4931;44.874;-1.092;2022-07-10T00:56:27;101905.81;;;21.40;100.00
9784;BME280;4931;44.874;-1.092;2022-07-10T01:01:13;101902.84;;;21.28;100.00
9784;BME280;4931;44.874;-1.092;2022-07-10T01:05:58;101908.25;;;21.16;100.00
9784;BME280;4931;44.874;-1.092;2022-07-10T01:10:44;101898.69;;;20.99;100.00
9784;BME280;4931;44.874;-1.092;2022-07-10T01:15:32;101908.19;;;20.89;100.00
9784;BME280;4931;44.874;-1.092;2022-07-10T01:20:18;101897.13;;;20.76;100.00
9784;BME280;4931;44.874;-1.092;2022-07-10T01:25:07;101896.56;;;20.65;100.00
9784;BME280;4931;44.874;-1.092;2022-07-10T01:29:54;101894.72;;;20.60;100.00
9784;BME280;4931;44.874;-1.092;2022-07-10T01:34:39;101900.88;;;20.39;100.00
9784;BME280;4931;44.874;-1.092;2022-07-10T01:39:25;101896.44;;;20.38;100.00
9784;BME280;4931;44.874;-1.092;2022-07-10T01:44:12;101898.63;;;20.19;100.00
9784;BME280;4931;44.874;-1.092;2022-07-10T01:48:58;101886.84;;;19.99;100.00
9784;BME280;4931;44.874;-1.092;2022-07-10T01:53:43;101888.25;;;19.88;100.00
9784;BME280;4931;44.874;-1.092;2022-07-10T01:58:28;101886.19;;;19.80;100.00
9784;BME280;4931;44.874;-1.092;2022-07-10T02:03:16;101878.47;;;19.77;100.00
9784;BME280;4931;44.874;-1.092;2022-07-10T02:08:14;101882.63;;;19.65;100.00
9784;BME280;4931;44.874;-1.092;2022-07-10T02:13:00;101875.91;;;19.44;100.00
9784;BME280;4931;44.874;-1.092;2022-07-10T02:17:45;101869.03;;;19.27;100.00
9784;BME280;4931;44.874;-1.092;2022-07-10T02:22:33;101868.78;;;19.15;100.00
9784;BME280;4931;44.874;-1.092;2022-07-10T02:27:18;101867.72;;;19.11;100.00
9784;BME280;4931;44.874;-1.092;2022-07-10T02:32:05;101865.69;;;19.02;100.00
9784;BME280;4931;44.874;-1.092;2022-07-10T02:36:50;101869.09;;;18.99;100.00
9784;BME280;4931;44.874;-1.092;2022-07-10T02:41:38;101863.00;;;18.83;100.00
9784;BME280;4931;44.874;-1.092;2022-07-10T02:46:23;101858.66;;;18.77;100.00
9784;BME280;4931;44.874;-1.092;2022-07-10T02:51:09;101857.00;;;18.48;100.00
9784;BME280;4931;44.874;-1.092;2022-07-10T02:55:54;101860.50;;;18.54;100.00
9784;BME280;4931;44.874;-1.092;2022-07-10T03:00:42;101850.84;;;18.51;100.00
9784;BME280;4931;44.874;-1.092;2022-07-10T03:05:28;101849.81;;;18.33;100.00
9784;BME280;4931;44.874;-1.092;2022-07-10T03:10:13;101841.31;;;18.11;100.00
9784;BME280;4931;44.874;-1.092;2022-07-10T03:14:58;101833.78;;;17.97;100.00
9784;BME280;4931;44.874;-1.092;2022-07-10T03:19:47;101843.28;;;17.91;100.00
9784;BME280;4931;44.874;-1.092;2022-07-10T03:24:32;101836.09;;;17.90;100.00
9784;BME280;4931;44.874;-1.092;2022-07-10T03:29:17;101830.78;;;17.94;100.00
9784;BME280;4931;44.874;-1.092;2022-07-10T03:34:04;101832.19;;;17.91;100.00
9784;BME280;4931;44.874;-1.092;2022-07-10T03:38:52;101820.97;;;17.82;100.00
9784;BME280;4931;44.874;-1.092;2022-07-10T03:43:37;101827.84;;;17.85;100.00
9784;BME280;4931;44.874;-1.092;2022-07-10T03:48:22;101827.25;;;17.69;100.00
9784;BME280;4931;44.874;-1.092;2022-07-10T03:53:08;101827.00;;;17.70;100.00
9784;BME280;4931;44.874;-1.092;2022-07-10T03:57:55;101827.56;;;17.67;100.00
9784;BME280;4931;44.874;-1.092;2022-07-10T04:02:44;101825.72;;;17.63;100.00
9784;BME280;4931;44.874;-1.092;2022-07-10T04:07:29;101828.09;;;17.69;100.00
9784;BME280;4931;44.874;-1.092;2022-07-10T04:12:15;101825.56;;;17.54;100.00
9784;BME280;4931;44.874;-1.092;2022-07-10T04:17:03;101825.34;;;17.50;100.00
9784;BME280;4931;44.874;-1.092;2022-07-10T04:21:49;101830.47;;;17.43;100.00
9784;BME280;4931;44.874;-1.092;2022-07-10T04:26:34;101830.31;;;17.34;100.00
9784;BME280;4931;44.874;-1.092;2022-07-10T04:31:19;101821.28;;;17.42;100.00
9784;BME280;4931;44.874;-1.092;2022-07-10T04:36:07;101826.34;;;17.40;100.00
9784;BME280;4931;44.874;-1.092;2022-07-10T04:40:52;101828.66;;;17.33;100.00
9784;BME280;4931;44.874;-1.092;2022-07-10T04:45:37;101827.97;;;17.22;100.00
9784;BME280;4931;44.874;-1.092;2022-07-10T04:50:23;101827.22;;;17.17;100.00
9784;BME280;4931;44.874;-1.092;2022-07-10T04:55:11;101820.03;;;17.16;100.00
9784;BME280;4931;44.874;-1.092;2022-07-10T04:59:56;101830.00;;;17.17;100.00
9784;BME280;4931;44.874;-1.092;2022-07-10T05:04:41;101839.81;;;17.09;100.00
9784;BME280;4931;44.874;-1.092;2022-07-10T05:09:27;101830.00;;;17.17;100.00
9784;BME280;4931;44.874;-1.092;2022-07-10T05:14:14;101840.03;;;17.32;100.00
9784;BME280;4931;44.874;-1.092;2022-07-10T05:19:00;101828.34;;;17.54;100.00
9784;BME280;4931;44.874;-1.092;2022-07-10T05:23:45;101827.84;;;17.85;100.00
9784;BME280;4931;44.874;-1.092;2022-07-10T05:28:31;101839.25;;;18.02;100.00
9784;BME280;4931;44.874;-1.092;2022-07-10T05:33:19;101840.75;;;18.41;100.00
9784;BME280;4931;44.874;-1.092;2022-07-10T05:38:04;101828.41;;;18.62;100.00
9784;BME280;4931;44.874;-1.092;2022-07-10T05:42:49;101832.41;;;18.97;100.00
9784;BME280;4931;44.874;-1.092;2022-07-10T05:47:35;101822.44;;;19.33;100.00
9784;BME280;4931;44.874;-1.092;2022-07-10T05:52:22;101813.81;;;19.57;100.00
9784;BME280;4931;44.874;-1.092;2022-07-10T05:57:08;101813.41;;;19.86;100.00
9784;BME280;4931;44.874;-1.092;2022-07-10T06:01:53;101815.53;;;20.21;100.00
9784;BME280;4931;44.874;-1.092;2022-07-10T06:06:38;101818.47;;;20.56;100.00
9784;BME280;4931;44.874;-1.092;2022-07-10T06:11:26;101819.91;;;20.85;100.00
9784;BME280;4931;44.874;-1.092;2022-07-10T06:16:12;101817.81;;;20.99;100.00
9784;BME280;4931;44.874;-1.092;2022-07-10T06:20:57;101816.19;;;21.33;100.00
9784;BME280;4931;44.874;-1.092;2022-07-10T06:25:45;101818.84;;;21.56;100.00
9784;BME280;4931;44.874;-1.092;2022-07-10T06:30:34;101826.78;;;22.10;100.00
9784;BME280;4931;44.874;-1.092;2022-07-10T06:35:19;101821.31;;;22.31;100.00
9784;BME280;4931;44.874;-1.092;2022-07-10T06:40:06;101825.44;;;22.73;100.00
9784;BME280;4931;44.874;-1.092;2022-07-10T06:44:51;101825.31;;;22.90;100.00
9784;BME280;4931;44.874;-1.092;2022-07-10T06:49:39;101828.41;;;23.27;100.00
9784;BME280;4931;44.874;-1.092;2022-07-10T06:54:25;101822.91;;;23.85;100.00
9784;BME280;4931;44.874;-1.092;2022-07-10T06:59:10;101825.94;;;24.14;100.00
9784;BME280;4931;44.874;-1.092;2022-07-10T07:03:56;101814.28;;;24.49;100.00
9784;BME280;4931;44.874;-1.092;2022-07-10T07:08:44;101822.47;;;24.54;99.29
9784;BME280;4931;44.874;-1.092;2022-07-10T07:13:29;101827.38;;;24.82;96.33
9784;BME280;4931;44.874;-1.092;2022-07-10T07:18:14;101821.97;;;25.14;95.72
9784;BME280;4931;44.874;-1.092;2022-07-10T07:23:00;101819.81;;;25.35;90.62
9784;BME280;4931;44.874;-1.092;2022-07-10T07:27:54;101812.31;;;25.68;89.78
9784;BME280;4931;44.874;-1.092;2022-07-10T07:32:40;101808.28;;;25.97;88.78
9784;BME280;4931;44.874;-1.092;2022-07-10T07:37:35;101813.34;;;26.36;85.18
9784;BME280;4931;44.874;-1.092;2022-07-10T07:42:21;101804.69;;;26.45;80.07
9784;BME280;4931;44.874;-1.092;2022-07-10T07:47:08;101803.63;;;26.49;81.28
9784;BME280;4931;44.874;-1.092;2022-07-10T07:51:54;101793.41;;;27.12;79.05
9784;BME280;4931;44.874;-1.092;2022-07-10T07:56:39;101785.78;;;27.32;73.96
9784;BME280;4931;44.874;-1.092;2022-07-10T08:01:24;101788.78;;;27.59;71.82
9784;BME280;4931;44.874;-1.092;2022-07-10T08:06:12;101792.97;;;27.69;67.68
9784;BME280;4931;44.874;-1.092;2022-07-10T08:10:57;101785.78;;;27.72;68.73
9784;BME280;4931;44.874;-1.092;2022-07-10T08:15:43;101778.03;;;28.35;68.76
9784;BME280;4931;44.874;-1.092;2022-07-10T08:20:28;101776.41;;;28.33;65.26
9784;BME280;4931;44.874;-1.092;2022-07-10T08:25:16;101766.31;;;28.59;63.41
9784;BME280;4931;44.874;-1.092;2022-07-10T08:30:02;101762.06;;;28.99;63.01
9784;BME280;4931;44.874;-1.092;2022-07-10T08:34:47;101756.69;;;29.21;60.34
9784;BME280;4931;44.874;-1.092;2022-07-10T08:39:32;101755.88;;;29.21;56.76
9784;BME280;4931;44.874;-1.092;2022-07-10T08:44:21;101751.47;;;29.57;55.68
9784;BME280;4931;44.874;-1.092;2022-07-10T08:49:09;101755.38;;;29.45;52.21
9784;BME280;4931;44.874;-1.092;2022-07-10T08:53:56;101757.41;;;29.86;51.63
9784;BME280;4931;44.874;-1.092;2022-07-10T08:58:42;101755.28;;;30.17;50.70
9784;BME280;4931;44.874;-1.092;2022-07-10T09:03:32;101748.91;;;30.27;46.46
9784;BME280;4931;44.874;-1.092;2022-07-10T09:08:22;101746.03;;;30.83;47.84
9784;BME280;4931;44.874;-1.092;2022-07-10T09:13:10;101749.22;;;30.71;46.58
9784;BME280;4931;44.874;-1.092;2022-07-10T09:17:56;101737.53;;;30.83;48.05
9784;BME280;4931;44.874;-1.092;2022-07-10T09:22:45;101733.25;;;31.18;46.52
9784;BME280;4931;44.874;-1.092;2022-07-10T09:27:31;101732.72;;;30.94;44.84
9784;BME280;4931;44.874;-1.092;2022-07-10T09:32:16;101721.94;;;31.29;43.50
9784;BME280;4931;44.874;-1.092;2022-07-10T09:37:20;101730.75;;;31.06;45.20
9784;BME280;4931;44.874;-1.092;2022-07-10T09:42:24;101712.72;;;30.58;44.07
9784;BME280;4931;44.874;-1.092;2022-07-10T09:47:21;101710.47;;;30.96;44.03
9784;BME280;4931;44.874;-1.092;2022-07-10T09:52:07;101714.25;;;31.26;42.15
9784;BME280;4931;44.874;-1.092;2022-07-10T09:56:53;101709.00;;;31.32;41.49
9784;BME280;4931;44.874;-1.092;2022-07-10T10:01:46;101711.69;;;30.92;40.97
9784;BME280;4931;44.874;-1.092;2022-07-10T10:06:33;101695.06;;;30.83;41.30
9784;BME280;4931;44.874;-1.092;2022-07-10T10:11:21;101687.13;;;31.28;40.85
9784;BME280;4931;44.874;-1.092;2022-07-10T10:16:09;101676.69;;;31.61;39.28
9784;BME280;4931;44.874;-1.092;2022-07-10T10:20:57;101675.84;;;31.57;36.72
9784;BME280;4931;44.874;-1.092;2022-07-10T10:25:42;101674.19;;;31.38;37.76
9784;BME280;4931;44.874;-1.092;2022-07-10T10:30:28;101679.06;;;31.49;37.08
9784;BME280;4931;44.874;-1.092;2022-07-10T10:35:41;101666.88;;;31.19;37.23
9784;BME280;4931;44.874;-1.092;2022-07-10T10:40:34;101676.22;;;31.41;37.08
9784;BME280;4931;44.874;-1.092;2022-07-10T10:45:31;101668.53;;;31.56;38.13
9784;BME280;4931;44.874;-1.092;2022-07-10T10:50:36;101667.34;;;31.65;37.41
9784;BME280;4931;44.874;-1.092;2022-07-10T10:55:22;101672.63;;;31.63;36.06
9784;BME280;4931;44.874;-1.092;2022-07-10T11:00:12;101652.31;;;32.15;34.87
9784;BME280;4931;44.874;-1.092;2022-07-10T11:10:27;101666.47;;;32.51;33.81
9784;BME280;4931;44.874;-1.092;2022-07-10T11:15:16;101656.22;;;32.79;32.14
9784;BME280;4931;44.874;-1.092;2022-07-10T11:20:02;101660.44;;;32.20;33.49
9784;BME280;4931;44.874;-1.092;2022-07-10T11:24:54;101642.53;;;32.48;33.00
9784;BME280;4931;44.874;-1.092;2022-07-10T11:29:44;101644.16;;;32.42;31.48
9784;BME280;4931;44.874;-1.092;2022-07-10T11:34:37;101652.72;;;32.27;31.15
9784;BME280;4931;44.874;-1.092;2022-07-10T11:39:23;101643.38;;;32.38;32.88
9784;BME280;4931;44.874;-1.092;2022-07-10T11:44:13;101624.13;;;32.85;31.39
9784;BME280;4931;44.874;-1.092;2022-07-10T11:49:02;101624.59;;;32.69;30.26
9784;BME280;4931;44.874;-1.092;2022-07-10T11:53:58;101615.59;;;32.92;31.75
9784;BME280;4931;44.874;-1.092;2022-07-10T11:58:43;101616.09;;;33.40;31.34
9784;BME280;4931;44.874;-1.092;2022-07-10T12:03:29;101605.88;;;32.86;30.95
9784;BME280;4931;44.874;-1.092;2022-07-10T12:08:14;101600.69;;;32.59;31.10
9784;BME280;4931;44.874;-1.092;2022-07-10T12:13:07;101594.84;;;32.96;30.78
9784;BME280;4931;44.874;-1.092;2022-07-10T12:17:53;101583.75;;;33.12;31.00
9784;BME280;4931;44.874;-1.092;2022-07-10T12:33:08;101581.88;;;32.91;30.47
9784;BME280;4931;44.874;-1.092;2022-07-10T12:37:58;101584.09;;;33.21;28.72
9784;BME280;4931;44.874;-1.092;2022-07-10T12:42:44;101581.16;;;33.36;29.97
9784;BME280;4931;44.874;-1.092;2022-07-10T12:47:29;101582.09;;;33.18;29.30
9784;BME280;4931;44.874;-1.092;2022-07-10T12:52:22;101577.94;;;33.37;29.73
9784;BME280;4931;44.874;-1.092;2022-07-10T12:57:13;101576.50;;;33.11;30.50
9784;BME280;4931;44.874;-1.092;2022-07-10T13:01:58;101568.50;;;32.91;30.59
9784;BME280;4931;44.874;-1.092;2022-07-10T13:06:43;101562.84;;;32.88;29.46
9784;BME280;4931;44.874;-1.092;2022-07-10T13:11:31;101559.56;;;32.89;29.39
9784;BME280;4931;44.874;-1.092;2022-07-10T13:16:16;101559.28;;;33.33;30.25
9784;BME280;4931;44.874;-1.092;2022-07-10T13:21:02;101543.94;;;33.19;30.52
9784;BME280;4931;44.874;-1.092;2022-07-10T13:25:48;101552.13;;;33.10;29.52
9784;BME280;4931;44.874;-1.092;2022-07-10T13:30:36;101543.66;;;33.03;30.53
9784;BME280;4931;44.874;-1.092;2022-07-10T13:35:22;101532.47;;;33.34;30.34
9784;BME280;4931;44.874;-1.092;2022-07-10T13:40:08;101527.13;;;32.90;30.22
9784;BME280;4931;44.874;-1.092;2022-07-10T13:44:54;101530.81;;;33.40;28.60
9784;BME280;4931;44.874;-1.092;2022-07-10T13:49:42;101535.19;;;32.96;32.48
9784;BME280;4931;44.874;-1.092;2022-07-10T13:54:27;101519.53;;;32.69;32.84
9784;BME280;4931;44.874;-1.092;2022-07-10T13:59:12;101520.44;;;33.15;34.40
9784;BME280;4931;44.874;-1.092;2022-07-10T14:03:58;101522.31;;;33.33;36.53
9784;BME280;4931;44.874;-1.092;2022-07-10T14:08:46;101516.09;;;33.00;34.76
9784;BME280;4931;44.874;-1.092;2022-07-10T14:13:33;101513.00;;;32.69;37.82
9784;BME280;4931;44.874;-1.092;2022-07-10T14:18:18;101505.22;;;32.87;37.17
9784;BME280;4931;44.874;-1.092;2022-07-10T14:23:16;101511.31;;;32.86;37.02
9784;BME280;4931;44.874;-1.092;2022-07-10T14:28:04;101493.78;;;32.98;37.95
9784;BME280;4931;44.874;-1.092;2022-07-10T14:32:49;101492.41;;;32.61;38.08
9784;BME280;4931;44.874;-1.092;2022-07-10T14:37:36;101490.44;;;32.47;37.43
9784;BME280;4931;44.874;-1.092;2022-07-10T14:42:21;101493.97;;;32.73;37.62
9784;BME280;4931;44.874;-1.092;2022-07-10T14:47:09;101482.63;;;32.62;38.89
9784;BME280;4931;44.874;-1.092;2022-07-10T14:51:54;101483.50;;;32.55;35.37
9784;BME280;4931;44.874;-1.092;2022-07-10T14:56:39;101483.59;;;32.41;39.06
9784;BME280;4931;44.874;-1.092;2022-07-10T15:01:27;101481.66;;;32.16;38.91
9784;BME280;4931;44.874;-1.092;2022-07-10T15:06:14;101478.88;;;32.09;38.28
9784;BME280;4931;44.874;-1.092;2022-07-10T15:11:00;101473.84;;;32.42;36.83
9784;BME280;4931;44.874;-1.092;2022-07-10T15:15:47;101474.03;;;32.06;37.62
9784;BME280;4931;44.874;-1.092;2022-07-10T15:20:34;101465.16;;;31.89;37.95
9784;BME280;4931;44.874;-1.092;2022-07-10T15:25:22;101469.28;;;31.74;39.31
9784;BME280;4931;44.874;-1.092;2022-07-10T15:30:09;101472.50;;;31.76;38.30
9784;BME280;4931;44.874;-1.092;2022-07-10T15:34:54;101448.94;;;31.93;38.81
9784;BME280;4931;44.874;-1.092;2022-07-10T15:39:39;101452.88;;;32.21;38.13
9784;BME280;4931;44.874;-1.092;2022-07-10T15:44:30;101447.56;;;32.31;37.58
9784;BME280;4931;44.874;-1.092;2022-07-10T15:49:15;101452.09;;;32.21;38.19
9784;BME280;4931;44.874;-1.092;2022-07-10T15:54:01;101435.06;;;32.17;38.19
9784;BME280;4931;44.874;-1.092;2022-07-10T15:58:46;101432.69;;;32.01;39.38
9784;BME280;4931;44.874;-1.092;2022-07-10T16:03:34;101442.38;;;32.11;38.74
9784;BME280;4931;44.874;-1.092;2022-07-10T16:08:20;101443.59;;;32.17;38.09
9784;BME280;4931;44.874;-1.092;2022-07-10T16:13:06;101432.81;;;31.76;39.49
9784;BME280;4931;44.874;-1.092;2022-07-10T16:17:54;101431.09;;;31.97;39.56
9784;BME280;4931;44.874;-1.092;2022-07-10T16:22:42;101430.28;;;32.00;40.49
9784;BME280;4931;44.874;-1.092;2022-07-10T16:27:28;101429.91;;;31.90;39.36
9784;BME280;4931;44.874;-1.092;2022-07-10T16:32:13;101425.41;;;31.97;40.62
9784;BME280;4931;44.874;-1.092;2022-07-10T16:36:59;101419.91;;;31.42;40.94
9784;BME280;4931;44.874;-1.092;2022-07-10T16:41:47;101417.09;;;31.46;41.89
9784;BME280;4931;44.874;-1.092;2022-07-10T16:46:35;101409.00;;;31.48;41.49
9784;BME280;4931;44.874;-1.092;2022-07-10T16:51:20;101404.91;;;31.53;42.77
9784;BME280;4931;44.874;-1.092;2022-07-10T16:56:07;101402.94;;;31.39;43.39
9784;BME280;4931;44.874;-1.092;2022-07-10T17:00:55;101394.06;;;31.22;43.89
9784;BME280;4931;44.874;-1.092;2022-07-10T17:05:42;101396.09;;;31.15;44.88
9784;BME280;4931;44.874;-1.092;2022-07-10T17:10:27;101395.69;;;31.02;45.09
9784;BME280;4931;44.874;-1.092;2022-07-10T17:15:16;101388.41;;;31.15;45.50
9784;BME280;4931;44.874;-1.092;2022-07-10T17:20:04;101381.13;;;31.00;47.19
9784;BME280;4931;44.874;-1.092;2022-07-10T17:24:50;101386.00;;;30.95;47.12
9784;BME280;4931;44.874;-1.092;2022-07-10T17:29:35;101376.28;;;30.82;48.29
9784;BME280;4931;44.874;-1.092;2022-07-10T17:34:21;101372.66;;;30.63;50.22
9784;BME280;4931;44.874;-1.092;2022-07-10T17:39:08;101381.13;;;30.49;52.38
9784;BME280;4931;44.874;-1.092;2022-07-10T17:43:55;101386.75;;;30.35;53.87
9784;BME280;4931;44.874;-1.092;2022-07-10T17:48:40;101383.50;;;30.22;52.45
9784;BME280;4931;44.874;-1.092;2022-07-10T17:53:25;101388.38;;;30.28;52.34
9784;BME280;4931;44.874;-1.092;2022-07-10T17:58:13;101383.88;;;30.06;53.12
9784;BME280;4931;44.874;-1.092;2022-07-10T18:02:58;101376.19;;;30.10;53.08
9784;BME280;4931;44.874;-1.092;2022-07-10T18:07:44;101368.88;;;29.87;53.05
9784;BME280;4931;44.874;-1.092;2022-07-10T18:12:29;101376.09;;;29.85;53.77
9784;BME280;4931;44.874;-1.092;2022-07-10T18:17:17;101364.03;;;29.91;54.70
9784;BME280;4931;44.874;-1.092;2022-07-10T18:22:03;101374.44;;;29.66;55.54
9784;BME280;4931;44.874;-1.092;2022-07-10T18:26:48;101381.59;;;29.52;54.96
9784;BME280;4931;44.874;-1.092;2022-07-10T18:31:33;101369.38;;;29.26;54.83
9784;BME280;4931;44.874;-1.092;2022-07-10T18:36:21;101381.38;;;29.16;55.83
9784;BME280;4931;44.874;-1.092;2022-07-10T18:41:07;101386.22;;;29.12;56.14
9784;BME280;4931;44.874;-1.092;2022-07-10T18:45:52;101389.44;;;29.14;56.39
9784;BME280;4931;44.874;-1.092;2022-07-10T18:50:38;101392.59;;;29.02;57.71
9784;BME280;4931;44.874;-1.092;2022-07-10T18:55:25;101386.47;;;28.92;55.60
9784;BME280;4931;44.874;-1.092;2022-07-10T19:00:12;101393.28;;;28.84;54.64
9784;BME280;4931;44.874;-1.092;2022-07-10T19:04:58;101395.59;;;28.71;54.90
9784;BME280;4931;44.874;-1.092;2022-07-10T19:09:43;101397.88;;;28.62;55.61
9784;BME280;4931;44.874;-1.092;2022-07-10T19:14:32;101397.72;;;28.44;55.30
9784;BME280;4931;44.874;-1.092;2022-07-10T19:19:17;101397.63;;;28.37;56.19
9784;BME280;4931;44.874;-1.092;2022-07-10T19:24:03;101400.75;;;28.24;54.02
9784;BME280;4931;44.874;-1.092;2022-07-10T19:28:49;101400.13;;;28.04;54.03
9784;BME280;4931;44.874;-1.092;2022-07-10T19:33:36;101392.44;;;27.71;56.99
9784;BME280;4931;44.874;-1.092;2022-07-10T19:38:22;101398.38;;;27.62;56.89
9784;BME280;4931;44.874;-1.092;2022-07-10T19:43:09;101400.63;;;27.49;57.40
9784;BME280;4931;44.874;-1.092;2022-07-10T19:47:54;101399.19;;;27.36;58.54
9784;BME280;4931;44.874;-1.092;2022-07-10T19:52:42;101406.66;;;27.24;59.08
9784;BME280;4931;44.874;-1.092;2022-07-10T19:57:27;101400.75;;;27.06;60.79
9784;BME280;4931;44.874;-1.092;2022-07-10T20:02:13;101410.75;;;26.77;62.88
9784;BME280;4931;44.874;-1.092;2022-07-10T20:07:02;101415.63;;;26.60;64.44
9784;BME280;4931;44.874;-1.092;2022-07-10T20:11:55;101415.84;;;26.48;65.99
9784;BME280;4931;44.874;-1.092;2022-07-10T20:16:49;101426.78;;;26.53;64.98
9784;BME280;4931;44.874;-1.092;2022-07-10T20:26:39;101428.69;;;26.06;69.14
9784;BME280;4931;44.874;-1.092;2022-07-10T20:31:30;101440.28;;;26.24;71.77
9784;BME280;4931;44.874;-1.092;2022-07-10T20:36:15;101439.81;;;25.83;69.77
9784;BME280;4931;44.874;-1.092;2022-07-10T20:41:28;101442.56;;;25.79;70.61
9784;BME280;4931;44.874;-1.092;2022-07-10T20:46:13;101439.59;;;25.72;70.02
9784;BME280;4931;44.874;-1.092;2022-07-10T20:51:01;101441.41;;;25.64;70.62
9784;BME280;4931;44.874;-1.092;2022-07-10T20:55:47;101448.53;;;25.42;71.34
9784;BME280;4931;44.874;-1.092;2022-07-10T21:00:32;101445.31;;;25.24;72.22
9784;BME280;4931;44.874;-1.092;2022-07-10T21:05:17;101448.53;;;25.26;71.08
9784;BME280;4931;44.874;-1.092;2022-07-10T21:10:07;101456.81;;;25.19;71.46
9784;BME280;4931;44.874;-1.092;2022-07-10T21:14:52;101458.97;;;25.26;71.10
9784;BME280;4931;44.874;-1.092;2022-07-10T21:19:38;101460.06;;;25.05;72.05
9784;BME280;4931;44.874;-1.092;2022-07-10T21:24:23;101461.59;;;25.02;72.75
9784;BME280;4931;44.874;-1.092;2022-07-10T21:29:11;101466.13;;;24.91;73.81
9784;BME280;4931;44.874;-1.092;2022-07-10T21:33:57;101470.13;;;24.90;73.26
9784;BME280;4931;44.874;-1.092;2022-07-10T21:38:42;101465.94;;;24.84;74.58
9784;BME280;4931;44.874;-1.092;2022-07-10T21:43:27;101473.00;;;24.78;74.47
9784;BME280;4931;44.874;-1.092;2022-07-10T21:48:15;101469.34;;;24.61;76.27
9784;BME280;4931;44.874;-1.092;2022-07-10T21:53:00;101462.28;;;24.67;76.46
9784;BME280;4931;44.874;-1.092;2022-07-10T21:57:46;101458.13;;;24.61;76.54
9784;BME280;4931;44.874;-1.092;2022-07-10T22:02:31;101457.00;;;24.50;77.46
9784;BME280;4931;44.874;-1.092;2022-07-10T22:07:19;101456.59;;;24.35;79.67
9784;BME280;4931;44.874;-1.092;2022-07-10T22:12:06;101451.00;;;24.35;79.40
9784;BME280;4931;44.874;-1.092;2022-07-10T22:16:52;101455.69;;;24.31;79.70
9784;BME280;4931;44.874;-1.092;2022-07-10T22:21:37;101454.53;;;24.32;79.76
9784;BME280;4931;44.874;-1.092;2022-07-10T22:26:26;101451.31;;;24.18;81.33
9784;BME280;4931;44.874;-1.092;2022-07-10T22:31:12;101457.63;;;24.15;81.88
9784;BME280;4931;44.874;-1.092;2022-07-10T22:36:05;101459.25;;;24.16;82.46
9784;BME280;4931;44.874;-1.092;2022-07-10T22:40:51;101458.66;;;23.94;85.03
9784;BME280;4931;44.874;-1.092;2022-07-10T22:45:40;101454.25;;;23.68;86.50
9784;BME280;4931;44.874;-1.092;2022-07-10T22:50:26;101451.59;;;23.47;88.90
9784;BME280;4931;44.874;-1.092;2022-07-10T22:55:12;101456.13;;;23.40;89.85
9784;BME280;4931;44.874;-1.092;2022-07-10T22:59:57;101455.69;;;23.25;90.66
9784;BME280;4931;44.874;-1.092;2022-07-10T23:04:45;101456.03;;;23.24;90.83
9784;BME280;4931;44.874;-1.092;2022-07-10T23:09:30;101453.53;;;23.10;92.27
9784;BME280;4931;44.874;-1.092;2022-07-10T23:14:15;101462.41;;;23.12;92.08
9784;BME280;4931;44.874;-1.092;2022-07-10T23:19:01;101446.81;;;23.23;91.42
9784;BME280;4931;44.874;-1.092;2022-07-10T23:23:49;101443.63;;;23.00;93.66
9784;BME280;4931;44.874;-1.092;2022-07-10T23:28:34;101428.72;;;23.08;94.29
9784;BME280;4931;44.874;-1.092;2022-07-10T23:33:21;101413.44;;;22.81;95.48
9784;BME280;4931;44.874;-1.092;2022-07-10T23:38:06;101416.22;;;22.68;96.81
9784;BME280;4931;44.874;-1.092;2022-07-10T23:42:54;101415.94;;;22.49;99.03
9784;BME280;4931;44.874;-1.092;2022-07-10T23:47:39;101409.56;;;22.61;99.14
9784;BME280;4931;44.874;-1.092;2022-07-10T23:52:25;101406.75;;;22.48;99.82
9784;BME280;4931;44.874;-1.092;2022-07-10T23:57:10;101406.66;;;22.24;100.00
